Time;durP1;ratioP1;P1;durP2;ratioP2;P2;SDS_P1;SDS_P2;PMS_P1;PMS_P2;Temp;Humidity;BMP_temperature;BMP_pressure;BME280_temperature;BME280_humidity;BME280_pressure;Samples;Min_cycle;Max_cycle;Signal;HPM_P1;HPM_P2
2022/10/01 00:00:03;;;;;;;0.30;0.30;;;;;;;14.19;87.08;99810.72;5052618;28;20041;-65
2022/10/01 00:02:36;;;;;;;0.20;0.20;;;;;;;14.12;87.28;99807.53;5047727;28;20049;-65
2022/10/01 00:05:03;;;;;;;0.30;0.30;;;;;;;14.10;87.72;99798.78;5052253;28;20049;-65
2022/10/01 00:07:29;;;;;;;0.30;0.30;;;;;;;14.11;87.75;99805.91;5047598;28;20136;-66
2022/10/01 00:09:56;;;;;;;0.30;0.30;;;;;;;14.08;87.51;99796.31;5048726;28;20136;-65
2022/10/01 00:12:22;;;;;;;0.20;0.20;;;;;;;14.09;87.86;99800.69;5032788;28;20045;-65
2022/10/01 00:14:48;;;;;;;0.30;0.30;;;;;;;14.08;88.19;99793.56;5047535;28;20053;-66
2022/10/01 00:17:15;;;;;;;0.22;0.22;;;;;;;14.13;87.98;99798.19;5045619;28;20053;-65
2022/10/01 00:19:41;;;;;;;0.30;0.30;;;;;;;14.14;88.14;99800.66;5046600;28;20067;-63
2022/10/01 00:22:07;;;;;;;0.20;0.20;;;;;;;14.13;87.79;99806.44;5051122;28;20049;-64
2022/10/01 00:24:33;;;;;;;0.20;0.20;;;;;;;14.08;87.80;99790.03;5048104;28;20048;-65
2022/10/01 00:27:00;;;;;;;0.30;0.30;;;;;;;14.12;88.20;99805.59;5046845;28;20072;-63
2022/10/01 00:29:26;;;;;;;0.30;0.30;;;;;;;14.14;87.83;99806.13;5045098;28;20481;-65
2022/10/01 00:31:52;;;;;;;0.20;0.20;;;;;;;14.14;88.00;99795.16;5043982;28;20075;-66
2022/10/01 00:34:18;;;;;;;0.20;0.20;;;;;;;14.13;87.89;99792.69;5048970;28;20056;-65
2022/10/01 00:36:44;;;;;;;0.30;0.30;;;;;;;14.12;87.99;99796.56;5026059;28;20048;-66
2022/10/01 00:39:10;;;;;;;0.30;0.30;;;;;;;14.09;88.49;99797.94;5043881;28;20148;-64
2022/10/01 00:41:37;;;;;;;0.30;0.30;;;;;;;14.14;88.26;99797.06;5025655;28;20513;-63
2022/10/01 00:44:31;;;;;;;0.30;0.30;;;;;;;14.16;88.47;99798.41;5024227;28;20218;-64
2022/10/01 00:47:02;;;;;;;0.30;0.30;;;;;;;14.15;87.95;99795.94;5015465;28;20049;-66
2022/10/01 00:49:30;;;;;;;0.30;0.30;;;;;;;14.12;88.48;99797.34;5026916;28;20406;-64
2022/10/01 00:52:00;;;;;;;0.20;0.20;;;;;;;14.11;88.18;99798.47;5026410;28;20115;-65
2022/10/01 00:54:33;;;;;;;0.20;0.20;;;;;;;14.14;88.62;99805.31;5026131;28;20049;-65
2022/10/01 00:57:01;;;;;;;0.30;0.30;;;;;;;14.15;88.29;99790.44;5032639;28;20055;-64
2022/10/01 00:59:30;;;;;;;0.20;0.20;;;;;;;14.15;88.89;99798.69;5045989;28;20041;-65
2022/10/01 01:01:56;;;;;;;0.30;0.30;;;;;;;14.13;89.20;99792.69;5023677;28;20045;-66
2022/10/01 01:04:22;;;;;;;0.30;0.30;;;;;;;14.09;89.27;99788.91;5025054;28;20073;-65
2022/10/01 01:06:54;;;;;;;0.30;0.30;;;;;;;14.06;89.64;99801.31;5022798;28;20041;-65
2022/10/01 01:09:21;;;;;;;0.20;0.20;;;;;;;13.99;89.40;99800.88;5043699;28;20052;-63
2022/10/01 01:11:57;;;;;;;0.47;0.35;;;;;;;13.93;89.86;99800.13;5047249;28;20501;-64
2022/10/01 01:14:32;;;;;;;0.30;0.30;;;;;;;13.93;90.23;99804.78;5043108;28;20609;-64
2022/10/01 01:17:07;;;;;;;0.35;0.30;;;;;;;13.93;90.65;99802.06;5046327;28;20508;-64
2022/10/01 01:19:54;;;;;;;0.30;0.30;;;;;;;13.89;90.52;99799.06;5044566;28;20118;-65
2022/10/01 01:22:23;;;;;;;;;;;;;;;13.85;90.52;99798.88;5025279;28;20053;-63
2022/10/01 01:24:55;;;;;;;0.38;0.38;;;;;;;13.81;90.56;99786.81;5048374;28;19970;-65
2022/10/01 01:27:32;;;;;;;0.30;0.30;;;;;;;13.79;90.96;99791.00;5045837;28;20147;-65
2022/10/01 01:30:05;;;;;;;0.30;0.30;;;;;;;13.74;91.75;99789.97;5025338;28;20618;-65
2022/10/01 01:32:38;;;;;;;0.32;0.30;;;;;;;13.71;93.15;99786.97;5027101;28;20045;-65
2022/10/01 01:35:07;;;;;;;0.30;0.30;;;;;;;13.65;94.44;99786.22;5026185;28;20146;-65
2022/10/01 01:37:39;;;;;;;0.20;0.20;;;;;;;13.59;95.08;99773.69;5040789;28;20483;-63
2022/10/01 01:40:10;;;;;;;0.20;0.20;;;;;;;13.51;95.43;99779.81;5034671;28;20049;-64
2022/10/01 01:42:40;;;;;;;0.20;0.20;;;;;;;13.46;96.09;99777.97;5044285;28;20064;-62
2022/10/01 01:45:12;;;;;;;0.47;0.28;;;;;;;13.44;96.31;99772.78;5042236;28;20048;-65
2022/10/01 01:47:41;;;;;;;0.20;0.20;;;;;;;13.42;96.52;99772.19;5044727;28;20049;-66
2022/10/01 01:50:08;;;;;;;0.20;0.20;;;;;;;13.44;97.15;99774.69;5047920;28;20122;-65
2022/10/01 01:52:37;;;;;;;0.30;0.30;;;;;;;13.45;97.10;99771.66;5062590;28;20114;-65
2022/10/01 01:55:06;;;;;;;0.30;0.30;;;;;;;13.46;97.20;99776.03;5065282;28;20044;-65
2022/10/01 01:57:35;;;;;;;0.20;0.20;;;;;;;13.45;96.62;99777.16;5062037;28;20070;-65
2022/10/01 02:00:02;;;;;;;0.30;0.30;;;;;;;13.42;96.43;99772.19;5067055;28;20549;-66
2022/10/01 02:02:36;;;;;;;0.30;0.30;;;;;;;13.42;96.11;99774.94;5065125;28;20141;-63
2022/10/01 02:05:06;;;;;;;0.20;0.20;;;;;;;13.43;96.35;99773.91;5062292;28;20129;-65
2022/10/01 02:07:56;;;;;;;0.20;0.20;;;;;;;13.50;96.70;99775.44;5063747;28;20091;-64
2022/10/01 02:10:39;;;;;;;0.30;0.30;;;;;;;13.58;96.59;99780.25;5060285;28;20590;-64
2022/10/01 02:13:21;;;;;;;0.20;0.20;;;;;;;13.64;96.07;99775.53;5061029;28;20064;-64
2022/10/01 02:16:18;;;;;;;0.30;0.30;;;;;;;13.62;96.12;99773.09;5063741;28;20423;-65
2022/10/01 02:18:57;;;;;;;0.20;0.20;;;;;;;13.36;95.60;99731.41;5062993;28;20079;-65
2022/10/01 02:21:29;;;;;;;0.20;0.20;;;;;;;13.56;95.71;99758.59;5064325;28;20048;-65
2022/10/01 02:24:00;;;;;;;0.20;0.20;;;;;;;13.54;95.82;99762.75;5044434;28;20052;-64
2022/10/01 02:26:30;;;;;;;0.28;0.28;;;;;;;13.56;96.01;99771.50;5064361;28;20132;-64
2022/10/01 02:29:02;;;;;;;0.30;0.30;;;;;;;13.50;95.84;99769.94;5059898;28;20056;-63
2022/10/01 02:31:29;;;;;;;0.20;0.20;;;;;;;13.41;96.10;99743.09;5061298;28;20148;-64
2022/10/01 02:34:00;;;;;;;0.30;0.30;;;;;;;13.58;96.08;99759.13;5061735;28;20056;-65
2022/10/01 02:36:30;;;;;;;0.25;0.25;;;;;;;13.61;96.17;99757.72;5064628;28;20048;-64
2022/10/01 02:38:59;;;;;;;0.25;0.25;;;;;;;13.61;96.17;99760.47;5067229;28;20594;-64
2022/10/01 02:41:32;;;;;;;0.30;0.30;;;;;;;13.59;95.68;99752.50;5061662;28;20165;-65
2022/10/01 02:44:02;;;;;;;0.22;0.22;;;;;;;13.60;95.95;99756.88;5063033;28;20056;-64
2022/10/01 02:46:34;;;;;;;0.30;0.30;;;;;;;13.62;95.92;99753.84;5064483;28;20052;-65
2022/10/01 02:49:03;;;;;;;0.20;0.20;;;;;;;13.61;95.48;99753.03;5063738;28;20048;-65
2022/10/01 02:51:36;;;;;;;0.30;0.30;;;;;;;13.61;95.26;99744.78;5062123;28;20048;-65
2022/10/01 02:54:10;;;;;;;0.30;0.30;;;;;;;13.62;94.92;99742.88;5063323;28;20147;-65
2022/10/01 02:59:21;;;;;;;0.20;0.20;;;;;;;13.67;94.85;99745.53;5063650;28;20540;-65
2022/10/01 03:01:47;;;;;;;0.30;0.30;;;;;;;13.68;94.69;99738.94;5061744;28;20040;-67
2022/10/01 03:04:14;;;;;;;0.30;0.30;;;;;;;13.69;94.31;99734.25;5062733;28;20052;-65
2022/10/01 03:06:40;;;;;;;0.20;0.20;;;;;;;13.67;94.49;99731.81;5065626;28;20048;-65
2022/10/01 03:09:07;;;;;;;0.30;0.30;;;;;;;13.68;94.21;99735.38;5064342;28;20044;-65
2022/10/01 03:11:33;;;;;;;0.22;0.22;;;;;;;13.69;94.32;99737.00;5061881;28;20082;-63
2022/10/01 03:14:00;;;;;;;0.25;0.25;;;;;;;13.69;94.08;99724.06;5059514;28;20112;-65
2022/10/01 03:16:26;;;;;;;0.25;0.25;;;;;;;13.71;94.10;99732.03;5061050;28;20041;-67
2022/10/01 03:18:52;;;;;;;0.30;0.30;;;;;;;13.63;94.02;99718.94;5063020;28;20051;-65
2022/10/01 03:21:19;;;;;;;0.30;0.30;;;;;;;13.67;94.17;99731.81;5063312;28;20629;-65
2022/10/01 03:23:45;;;;;;;0.30;0.30;;;;;;;13.69;94.64;99732.31;5058373;28;20041;-65
2022/10/01 03:26:11;;;;;;;0.30;0.30;;;;;;;13.73;94.78;99725.09;5063630;28;20110;-65
2022/10/01 03:28:37;;;;;;;0.30;0.30;;;;;;;13.74;94.59;99732.25;5035765;28;20044;-65
2022/10/01 03:31:05;;;;;;;0.20;0.20;;;;;;;13.72;94.61;99731.72;5030097;28;20060;-66
2022/10/01 03:33:30;;;;;;;;;;;;;;;13.71;94.41;99737.53;5038930;28;20103;-64
2022/10/01 03:35:56;;;;;;;0.20;0.20;;;;;;;13.74;94.37;99731.44;5048068;28;20314;-64
2022/10/01 03:38:23;;;;;;;0.30;0.30;;;;;;;13.74;94.07;99737.75;5061830;28;20120;-64
2022/10/01 03:40:49;;;;;;;0.30;0.30;;;;;;;13.75;93.85;99727.56;5062516;28;20052;-65
2022/10/01 03:43:15;;;;;;;0.20;0.20;;;;;;;13.74;93.95;99723.19;5062034;28;20048;-64
2022/10/01 03:45:41;;;;;;;0.30;0.30;;;;;;;13.73;93.95;99724.31;5048025;28;20079;-64
2022/10/01 03:48:07;;;;;;;0.20;0.20;;;;;;;13.75;93.40;99722.06;5041926;28;20504;-65
2022/10/01 03:50:35;;;;;;;0.30;0.30;;;;;;;13.75;93.52;99725.66;5048780;28;20151;-65
2022/10/01 03:53:01;;;;;;;0.30;0.30;;;;;;;13.74;93.53;99720.44;5042339;28;20091;-65
2022/10/01 03:55:28;;;;;;;0.40;0.40;;;;;;;13.74;93.62;99729.50;5026302;28;20140;-65
2022/10/01 03:57:54;;;;;;;0.30;0.30;;;;;;;13.72;93.60;99720.72;5029161;28;20389;-65
2022/10/01 04:00:20;;;;;;;0.40;0.40;;;;;;;13.72;93.49;99722.66;5028806;28;20049;-63
2022/10/01 04:02:47;;;;;;;0.30;0.30;;;;;;;13.69;93.24;99721.31;5033833;28;20274;-64
2022/10/01 04:05:14;;;;;;;0.30;0.30;;;;;;;13.65;93.40;99725.78;5039868;28;20056;-65
2022/10/01 04:07:41;;;;;;;0.30;0.30;;;;;;;13.63;93.48;99728.03;5054863;28;20049;-65
2022/10/01 04:10:08;;;;;;;0.30;0.30;;;;;;;13.62;94.05;99726.38;5027468;28;20056;-66
2022/10/01 04:12:35;;;;;;;0.28;0.28;;;;;;;13.58;93.95;99723.41;5044978;28;20415;-65
2022/10/01 04:15:01;;;;;;;;;;;;;;;13.58;93.64;99728.91;5027185;28;20409;-63
2022/10/01 04:17:29;;;;;;;0.30;0.30;;;;;;;13.58;93.86;99728.06;5044887;28;20423;-66
2022/10/01 04:19:56;;;;;;;0.30;0.30;;;;;;;13.57;93.63;99726.44;5034799;28;20077;-65
2022/10/01 04:22:22;;;;;;;0.30;0.30;;;;;;;13.60;94.00;99725.88;5044524;28;20047;-64
2022/10/01 04:24:48;;;;;;;0.40;0.40;;;;;;;13.61;94.06;99733.81;5041127;28;20040;-65
2022/10/01 04:27:14;;;;;;;0.40;0.40;;;;;;;13.61;93.81;99733.00;5027870;28;20053;-65
2022/10/01 04:29:41;;;;;;;0.30;0.30;;;;;;;13.60;93.90;99728.63;5032467;28;20080;-64
2022/10/01 04:32:07;;;;;;;0.30;0.30;;;;;;;13.61;94.10;99735.75;5036359;28;20432;-65
2022/10/01 04:34:51;;;;;;;0.30;0.30;;;;;;;13.65;94.33;99731.28;5047006;28;20056;-65
2022/10/01 04:37:17;;;;;;;0.40;0.40;;;;;;;13.67;93.99;99733.75;5028483;28;20535;-65
2022/10/01 04:39:43;;;;;;;0.30;0.30;;;;;;;13.68;94.22;99732.63;5025764;28;20751;-65
2022/10/01 04:42:12;;;;;;;0.40;0.40;;;;;;;13.63;93.92;99722.53;5046894;28;20045;-64
2022/10/01 04:44:38;;;;;;;0.32;0.32;;;;;;;13.70;94.11;99733.94;5046726;28;20412;-65
2022/10/01 04:47:06;;;;;;;0.30;0.30;;;;;;;13.65;93.57;99725.78;5047436;28;20526;-65
2022/10/01 04:49:32;;;;;;;0.30;0.30;;;;;;;13.68;94.05;99732.63;5048904;28;20465;-65
2022/10/01 04:51:58;;;;;;;0.20;0.20;;;;;;;13.67;93.98;99731.00;5050338;28;20064;-65
2022/10/01 04:54:24;;;;;;;0.30;0.30;;;;;;;13.60;93.82;99731.38;5059632;28;20469;-66
2022/10/01 04:56:51;;;;;;;0.30;0.30;;;;;;;13.51;93.97;99733.97;5048713;28;20057;-66
2022/10/01 04:59:18;;;;;;;0.40;0.40;;;;;;;13.51;94.25;99725.72;5062791;28;20059;-64
2022/10/01 05:01:44;;;;;;;0.50;0.47;;;;;;;13.45;94.27;99732.38;5054725;28;20103;-65
2022/10/01 05:04:11;;;;;;;0.28;0.28;;;;;;;13.33;94.28;99736.34;5065405;28;20048;-65
2022/10/01 05:06:37;;;;;;;0.43;0.43;;;;;;;13.29;94.80;99731.75;5064252;28;20350;-65
2022/10/01 05:09:03;;;;;;;0.30;0.30;;;;;;;13.29;95.06;99732.56;5046125;28;20524;-66
2022/10/01 05:11:30;;;;;;;0.40;0.40;;;;;;;13.29;94.98;99734.50;5041067;28;20084;-65
2022/10/01 05:13:56;;;;;;;0.30;0.30;;;;;;;13.29;94.82;99735.31;5044954;28;20053;-65
2022/10/01 05:16:21;;;;;;;0.20;0.20;;;;;;;13.30;94.87;99723.22;5047477;28;20094;-65
2022/10/01 05:18:47;;;;;;;0.70;0.35;;;;;;;13.36;94.79;99734.13;5048975;28;20076;-65
2022/10/01 05:21:15;;;;;;;0.30;0.30;;;;;;;13.36;94.59;99736.88;5042876;28;20128;-65
2022/10/01 05:23:41;;;;;;;;;;;;;;;13.34;94.48;99728.94;5042379;28;20245;-65
2022/10/01 05:26:07;;;;;;;0.35;0.35;;;;;;;13.31;94.43;99722.09;5046098;28;20482;-65
2022/10/01 05:28:34;;;;;;;0.20;0.20;;;;;;;13.28;94.47;99730.13;5046396;28;20053;-65
2022/10/01 05:31:01;;;;;;;0.30;0.30;;;;;;;13.23;94.73;99732.91;5044880;28;20075;-65
2022/10/01 05:33:28;;;;;;;0.20;0.20;;;;;;;13.28;94.97;99719.94;5045210;28;20052;-65
2022/10/01 05:35:55;;;;;;;0.30;0.30;;;;;;;13.31;95.08;99724.84;5047953;28;20547;-65
2022/10/01 05:38:22;;;;;;;0.93;0.60;;;;;;;13.29;94.73;99720.78;5048090;28;20056;-64
2022/10/01 05:40:48;;;;;;;0.20;0.20;;;;;;;13.25;95.28;99715.06;5049186;28;20107;-65
2022/10/01 05:43:14;;;;;;;0.22;0.22;;;;;;;13.33;95.23;99721.81;5049007;28;20048;-65
2022/10/01 05:45:41;;;;;;;0.20;0.20;;;;;;;13.37;94.46;99719.28;5047658;28;20068;-65
2022/10/01 05:48:08;;;;;;;0.20;0.20;;;;;;;13.39;94.54;99714.31;5045886;28;20049;-65
2022/10/01 05:50:38;;;;;;;0.20;0.20;;;;;;;13.47;94.42;99713.69;5043712;28;20052;-65
2022/10/01 05:53:05;;;;;;;0.30;0.30;;;;;;;13.44;94.14;99708.78;5044359;28;20060;-65
2022/10/01 05:55:35;;;;;;;0.30;0.30;;;;;;;13.47;94.02;99698.03;5046755;28;20102;-65
2022/10/01 05:58:03;;;;;;;0.20;0.20;;;;;;;13.60;93.89;99698.41;5044200;28;20602;-65
2022/10/01 06:00:30;;;;;;;0.30;0.30;;;;;;;13.63;93.29;99692.31;5042613;28;20424;-65
2022/10/01 06:02:57;;;;;;;0.25;0.25;;;;;;;13.67;92.87;99689.78;5040909;28;20057;-65
2022/10/01 06:05:23;;;;;;;0.22;0.22;;;;;;;13.67;92.78;99692.53;5044168;28;20056;-65
2022/10/01 06:07:50;;;;;;;0.20;0.20;;;;;;;13.67;92.43;99690.59;5046169;28;20110;-65
2022/10/01 06:10:17;;;;;;;0.20;0.20;;;;;;;13.70;92.42;99694.69;5048853;28;20132;-66
2022/10/01 06:12:45;;;;;;;0.20;0.20;;;;;;;13.64;92.52;99690.38;5043783;28;20098;-65
2022/10/01 06:15:12;;;;;;;0.30;0.30;;;;;;;13.69;92.34;99690.31;5030614;28;20753;-65
2022/10/01 06:17:44;;;;;;;0.20;0.20;;;;;;;13.74;92.45;99691.03;5048407;28;20045;-66
2022/10/01 06:20:11;;;;;;;0.20;0.20;;;;;;;13.78;92.22;99694.00;5047528;28;20041;-65
2022/10/01 06:22:38;;;;;;;0.20;0.20;;;;;;;13.78;91.94;99691.25;5046714;28;20041;-66
2022/10/01 06:25:04;;;;;;;0.30;0.30;;;;;;;13.80;91.97;99701.94;5045836;28;20036;-65
2022/10/01 06:27:30;;;;;;;0.30;0.30;;;;;;;13.75;91.93;99694.59;5044243;28;20063;-65
2022/10/01 06:29:58;;;;;;;0.20;0.20;;;;;;;13.67;91.77;99693.34;5044708;28;20555;-67
2022/10/01 06:32:23;;;;;;;;;;;;;;;13.63;92.13;99688.72;5045985;28;20048;-66
2022/10/01 06:34:49;;;;;;;0.20;0.20;;;;;;;13.64;92.36;99682.13;5044123;28;20400;-65
2022/10/01 06:37:16;;;;;;;0.20;0.20;;;;;;;13.64;92.38;99682.13;5043341;28;20523;-65
2022/10/01 06:39:43;;;;;;;0.27;0.27;;;;;;;13.68;92.42;99688.69;5047212;28;20051;-65
2022/10/01 06:42:09;;;;;;;0.20;0.20;;;;;;;13.67;92.30;99681.53;5046454;28;20044;-65
2022/10/01 06:44:35;;;;;;;0.20;0.20;;;;;;;13.72;92.46;99678.72;5049921;28;20535;-65
2022/10/01 06:47:02;;;;;;;0.30;0.30;;;;;;;13.80;92.15;99674.47;5046968;28;20492;-65
2022/10/01 06:49:28;;;;;;;0.20;0.20;;;;;;;13.83;91.90;99668.38;5048545;28;20072;-66
2022/10/01 06:55:00;;;;;;;0.20;0.20;;;;;;;14.13;90.85;99667.03;5040878;28;20076;-66
2022/10/01 06:57:26;;;;;;;0.20;0.20;;;;;;;14.23;90.26;99657.78;5040021;28;20041;-65
2022/10/01 06:59:52;;;;;;;0.20;0.20;;;;;;;14.20;89.94;99663.88;5039036;28;20557;-66
2022/10/01 07:02:26;;;;;;;0.20;0.20;;;;;;;14.16;89.84;99666.44;5015001;28;20069;-65
2022/10/01 07:04:52;;;;;;;0.30;0.30;;;;;;;14.18;90.07;99668.88;5041701;28;20057;-66
2022/10/01 07:07:18;;;;;;;0.30;0.30;;;;;;;14.13;89.79;99658.81;5041700;28;20057;-66
2022/10/01 07:09:44;;;;;;;0.30;0.30;;;;;;;14.16;90.15;99652.69;5032072;28;20053;-65
2022/10/01 07:12:10;;;;;;;0.20;0.20;;;;;;;14.23;90.30;99666.03;5019509;28;20208;-65
2022/10/01 07:14:36;;;;;;;0.25;0.25;;;;;;;14.24;89.95;99658.59;5020797;28;20152;-65
2022/10/01 07:17:02;;;;;;;0.20;0.20;;;;;;;14.26;89.64;99654.44;5021551;28;20057;-66
2022/10/01 07:19:30;;;;;;;0.30;0.30;;;;;;;14.36;89.89;99658.94;5018897;28;20471;-65
2022/10/01 07:21:56;;;;;;;0.20;0.20;;;;;;;14.47;89.21;99648.53;5020123;28;20049;-65
2022/10/01 07:24:22;;;;;;;0.30;0.30;;;;;;;14.41;88.82;99649.78;5009538;28;20037;-65
2022/10/01 07:26:49;;;;;;;0.20;0.20;;;;;;;14.40;88.74;99643.44;5063024;28;20076;-65
2022/10/01 07:29:15;;;;;;;0.30;0.30;;;;;;;14.30;88.96;99635.41;5065216;28;20087;-65
2022/10/01 07:31:42;;;;;;;0.20;0.20;;;;;;;14.32;89.44;99636.72;5066789;28;20484;-65
2022/10/01 07:34:08;;;;;;;0.20;0.20;;;;;;;14.34;89.00;99628.16;5050127;28;20136;-65
2022/10/01 07:36:36;;;;;;;0.30;0.30;;;;;;;14.30;89.06;99636.19;5048110;28;20159;-65
2022/10/01 07:39:02;;;;;;;0.30;0.30;;;;;;;14.20;89.17;99636.38;5049108;28;20045;-65
2022/10/01 07:41:28;;;;;;;0.20;0.20;;;;;;;14.21;89.46;99640.78;5055391;28;20037;-65
2022/10/01 07:43:54;;;;;;;0.30;0.30;;;;;;;14.15;89.90;99631.81;5045234;28;20103;-65
2022/10/01 07:46:20;;;;;;;0.30;0.30;;;;;;;14.07;90.21;99642.69;5040411;28;20044;-65
2022/10/01 07:48:47;;;;;;;0.30;0.30;;;;;;;14.14;90.26;99630.19;5051714;28;20206;-65
2022/10/01 07:51:13;;;;;;;0.30;0.30;;;;;;;14.17;90.16;99629.56;5053319;28;20094;-66
2022/10/01 07:53:41;;;;;;;0.30;0.30;;;;;;;14.28;90.14;99623.88;5046737;28;20061;-66
2022/10/01 07:56:07;;;;;;;0.20;0.20;;;;;;;14.45;89.50;99617.78;5051879;28;20053;-66
2022/10/01 07:58:33;;;;;;;0.20;0.20;;;;;;;14.52;89.55;99615.44;5060241;28;20063;-65
2022/10/01 08:01:02;;;;;;;0.30;0.30;;;;;;;14.56;89.18;99601.88;5050246;28;20428;-66
2022/10/01 08:03:28;;;;;;;0.20;0.20;;;;;;;14.65;88.47;99604.72;5050159;28;20040;-65
2022/10/01 08:05:54;;;;;;;0.30;0.30;;;;;;;14.66;88.45;99606.34;5063276;28;20054;-65
2022/10/01 08:08:20;;;;;;;0.20;0.20;;;;;;;14.71;88.36;99603.50;5051441;28;20531;-66
2022/10/01 08:10:48;;;;;;;0.20;0.20;;;;;;;14.83;87.85;99603.84;5055924;28;20037;-65
2022/10/01 08:13:16;;;;;;;0.30;0.30;;;;;;;14.89;87.50;99599.84;4698327;28;10000138;-65
2022/10/01 08:15:43;;;;;;;;;;;;;;;14.94;87.51;99590.66;5048627;28;20057;-66
2022/10/01 08:18:10;;;;;;;0.30;0.30;;;;;;;14.99;87.08;99582.28;5040524;28;19928;-66
2022/10/01 08:20:38;;;;;;;0.30;0.30;;;;;;;15.02;86.69;99586.38;5054334;28;20048;-65
2022/10/01 08:23:05;;;;;;;0.22;0.22;;;;;;;14.99;86.35;99578.72;5049709;28;20064;-65
2022/10/01 08:25:31;;;;;;;;;;;;;;;15.01;86.68;99574.53;5044786;28;20045;-65
2022/10/01 08:27:59;;;;;;;0.20;0.20;;;;;;;14.98;86.55;99575.16;5042156;28;19924;-65
2022/10/01 08:30:25;;;;;;;0.20;0.20;;;;;;;14.95;86.25;99574.94;5042890;28;20053;-65
2022/10/01 08:32:53;;;;;;;0.20;0.20;;;;;;;14.84;86.60;99571.59;5041044;28;20460;-65
2022/10/01 08:35:20;;;;;;;0.20;0.20;;;;;;;14.69;87.16;99568.03;5037930;28;20053;-65
2022/10/01 08:37:46;;;;;;;0.20;0.20;;;;;;;14.63;87.85;99568.44;5015820;28;20052;-65
2022/10/01 08:40:12;;;;;;;0.20;0.20;;;;;;;14.57;88.11;99576.00;5021706;28;20048;-65
2022/10/01 08:42:49;;;;;;;0.20;0.20;;;;;;;14.55;88.34;99559.81;5021934;28;20052;-65
2022/10/01 08:45:22;;;;;;;0.20;0.20;;;;;;;14.52;88.72;99552.19;5021398;28;20136;-65
2022/10/01 08:47:54;;;;;;;0.20;0.20;;;;;;;14.45;88.76;99562.75;5009281;28;20050;-65
2022/10/01 08:50:34;;;;;;;0.20;0.20;;;;;;;14.33;89.26;99555.84;5018699;28;20046;-65
2022/10/01 08:53:03;;;;;;;0.20;0.20;;;;;;;14.30;89.54;99550.16;5051394;28;20136;-66
2022/10/01 08:55:35;;;;;;;0.20;0.20;;;;;;;14.37;90.20;99558.00;5058158;28;20058;-65
2022/10/01 08:58:03;;;;;;;0.30;0.30;;;;;;;14.42;89.75;99555.13;5059251;28;20056;-65
2022/10/01 09:00:34;;;;;;;0.20;0.20;;;;;;;14.48;89.46;99540.13;5061221;28;20052;-65
2022/10/01 09:03:04;;;;;;;0.30;0.30;;;;;;;14.54;89.34;99538.94;5063304;28;20474;-65
2022/10/01 09:05:42;;;;;;;0.30;0.30;;;;;;;14.66;89.62;99541.16;5059764;28;20064;-64
2022/10/01 09:08:19;;;;;;;0.20;0.20;;;;;;;14.76;88.60;99534.63;5062594;28;20465;-65
2022/10/01 09:10:48;;;;;;;0.20;0.20;;;;;;;14.80;88.39;99532.06;4692663;28;10000114;-66
2022/10/01 09:13:51;;;;;;;0.30;0.30;;;;;;;14.90;88.31;99537.31;5022840;28;20057;-65
2022/10/01 09:16:24;;;;;;;0.20;0.20;;;;;;;14.93;87.88;99533.97;5001087;28;20539;-65
2022/10/01 09:19:05;;;;;;;0.30;0.30;;;;;;;14.98;87.70;99533.84;5037127;28;20145;-65
2022/10/01 09:21:44;;;;;;;0.30;0.30;;;;;;;15.05;87.56;99541.69;5041016;28;20157;-66
2022/10/01 09:24:14;;;;;;;0.28;0.28;;;;;;;15.05;87.95;99538.09;5040822;28;20069;-64
2022/10/01 09:26:44;;;;;;;0.20;0.20;;;;;;;15.06;87.49;99532.28;5040291;28;20049;-66
2022/10/01 09:29:15;;;;;;;0.20;0.20;;;;;;;15.00;87.82;99526.09;5043065;28;20072;-65
2022/10/01 09:31:46;;;;;;;0.20;0.20;;;;;;;14.94;87.83;99523.78;5045065;28;20114;-65
2022/10/01 09:34:14;;;;;;;0.20;0.20;;;;;;;14.92;87.97;99515.84;5065588;28;20047;-65
2022/10/01 09:36:50;;;;;;;0.30;0.30;;;;;;;14.94;88.11;99518.25;5063478;28;20059;-65
2022/10/01 09:39:22;;;;;;;0.30;0.30;;;;;;;14.95;88.03;99501.44;5065548;28;20048;-65
2022/10/01 09:41:48;;;;;;;0.30;0.30;;;;;;;15.00;87.87;99506.81;5063856;28;20515;-65
2022/10/01 09:44:17;;;;;;;0.30;0.30;;;;;;;14.93;87.63;99511.13;5048112;28;20110;-65
2022/10/01 09:46:45;;;;;;;0.20;0.20;;;;;;;14.83;88.18;99502.00;5026702;28;20409;-65
2022/10/01 09:49:22;;;;;;;0.30;0.30;;;;;;;14.85;88.43;99501.69;5057319;28;20413;-65
2022/10/01 09:51:54;;;;;;;0.28;0.28;;;;;;;14.87;88.47;99491.16;5050848;28;20139;-65
2022/10/01 09:54:30;;;;;;;0.30;0.30;;;;;;;14.92;88.16;99495.75;5027015;28;20155;-65
2022/10/01 09:57:04;;;;;;;0.30;0.30;;;;;;;14.96;88.28;99485.72;5047154;28;20110;-65
2022/10/01 09:59:35;;;;;;;0.20;0.20;;;;;;;14.73;88.02;99438.94;5045985;28;20045;-65
2022/10/01 10:02:11;;;;;;;0.20;0.20;;;;;;;15.10;87.87;99482.94;5045751;28;20055;-65
2022/10/01 10:04:37;;;;;;;0.30;0.30;;;;;;;15.17;87.61;99478.63;5038075;28;20048;-66
2022/10/01 10:07:04;;;;;;;0.30;0.30;;;;;;;15.17;87.54;99477.78;5044758;28;20037;-66
2022/10/01 10:09:33;;;;;;;0.20;0.20;;;;;;;15.17;87.51;99469.53;5046082;28;20045;-65
2022/10/01 10:12:01;;;;;;;0.20;0.20;;;;;;;15.17;87.34;99464.84;5052776;28;20072;-66
2022/10/01 10:14:31;;;;;;;0.30;0.30;;;;;;;15.09;87.49;99457.34;5062777;28;20385;-65
2022/10/01 10:17:03;;;;;;;0.22;0.22;;;;;;;15.10;87.36;99456.19;5061861;28;20401;-65
2022/10/01 10:19:32;;;;;;;0.20;0.20;;;;;;;15.09;87.70;99449.06;5063998;28;20584;-65
2022/10/01 10:22:10;;;;;;;0.30;0.25;;;;;;;15.18;87.67;99446.38;5066749;28;20375;-65
2022/10/01 10:24:36;;;;;;;0.30;0.30;;;;;;;15.30;87.26;99432.03;5062177;28;20041;-65
2022/10/01 10:27:05;;;;;;;0.30;0.30;;;;;;;15.34;87.22;99430.28;5062453;28;20044;-65
2022/10/01 10:29:35;;;;;;;0.30;0.30;;;;;;;15.37;86.89;99428.81;5029722;28;20060;-65
2022/10/01 10:32:03;;;;;;;0.30;0.30;;;;;;;15.38;86.89;99422.19;5044201;28;20080;-65
2022/10/01 10:34:35;;;;;;;0.20;0.20;;;;;;;15.41;86.94;99424.31;5028286;28;20144;-65
2022/10/01 10:37:05;;;;;;;0.20;0.20;;;;;;;15.40;87.29;99422.69;5043039;28;20052;-65
2022/10/01 10:39:35;;;;;;;0.30;0.30;;;;;;;15.35;87.19;99417.31;5042591;28;20505;-65
2022/10/01 10:42:04;;;;;;;0.20;0.20;;;;;;;15.31;87.58;99425.41;5047283;28;20049;-66
2022/10/01 10:44:35;;;;;;;0.30;0.30;;;;;;;15.25;88.09;99430.22;5061180;28;20051;-65
2022/10/01 10:47:05;;;;;;;0.30;0.30;;;;;;;15.23;87.99;99426.16;4711232;28;10000329;-65
2022/10/01 10:49:39;;;;;;;0.20;0.20;;;;;;;15.22;87.70;99419.03;5043138;28;20350;-65
2022/10/01 10:52:18;;;;;;;0.30;0.30;;;;;;;15.21;87.87;99417.41;5043980;28;20500;-66
2022/10/01 10:54:47;;;;;;;0.30;0.30;;;;;;;15.21;nan;99415.44;5052767;28;20147;-65
2022/10/01 10:57:20;;;;;;;0.30;0.30;;;;;;;15.16;87.92;99421.91;5021339;28;20049;-65
2022/10/01 10:59:55;;;;;;;0.30;0.30;;;;;;;15.13;88.36;99424.47;5044660;28;20083;-65
2022/10/01 11:02:24;;;;;;;0.30;0.30;;;;;;;15.11;88.29;99419.28;5043426;28;20053;-65
2022/10/01 11:04:52;;;;;;;0.20;0.20;;;;;;;15.16;88.13;99419.16;5042645;28;20049;-65
2022/10/01 11:07:21;;;;;;;0.30;0.30;;;;;;;15.21;87.90;99404.44;5041223;28;20542;-65
2022/10/01 11:10:05;;;;;;;0.30;0.30;;;;;;;15.28;87.34;99402.06;5041369;28;20372;-65
2022/10/01 11:12:47;;;;;;;0.30;0.30;;;;;;;15.38;87.10;99403.72;5050298;28;20102;-65
2022/10/01 11:15:28;;;;;;;0.30;0.30;;;;;;;15.48;86.69;99402.63;5057024;28;20056;-65
2022/10/01 11:18:11;;;;;;;0.30;0.30;;;;;;;15.55;86.16;99400.25;5039398;28;20040;-65
2022/10/01 11:20:49;;;;;;;0.30;0.30;;;;;;;15.68;86.13;99397.66;5057395;28;20047;-64
2022/10/01 11:23:33;;;;;;;0.30;0.30;;;;;;;15.94;85.16;99394.22;5053058;28;20045;-65
2022/10/01 11:26:12;;;;;;;0.30;0.30;;;;;;;16.07;83.59;99385.00;5047001;28;20118;-66
2022/10/01 11:28:48;;;;;;;0.30;0.30;;;;;;;16.12;82.95;99392.31;5045019;28;20385;-65
2022/10/01 11:31:28;;;;;;;0.30;0.30;;;;;;;16.07;82.90;99387.75;5044745;28;20230;-64
2022/10/01 11:34:10;;;;;;;0.30;0.30;;;;;;;16.05;83.19;99381.75;5045712;28;20045;-67
2022/10/01 11:36:44;;;;;;;0.30;0.30;;;;;;;16.14;83.07;99371.53;5046430;28;20044;-65
2022/10/01 11:39:15;;;;;;;0.30;0.30;;;;;;;16.24;82.04;99364.91;5045757;28;20041;-65
2022/10/01 11:41:45;;;;;;;0.30;0.30;;;;;;;16.41;81.50;99364.09;5042348;28;20459;-65
2022/10/01 11:44:20;;;;;;;0.30;0.30;;;;;;;16.43;80.52;99367.34;5042814;28;20049;-65
2022/10/01 11:46:54;;;;;;;0.30;0.30;;;;;;;16.39;80.64;99335.19;5043437;28;20044;-66
2022/10/01 11:49:27;;;;;;;0.40;0.40;;;;;;;16.60;79.54;99362.94;5043953;28;20089;-66